Time;durP1;ratioP1;P1;durP2;ratioP2;P2;SDS_P1;SDS_P2;PMS_P1;PMS_P2;Temp;Humidity;BMP_temperature;BMP_pressure;BME280_temperature;BME280_humidity;BME280_pressure;Samples;Min_cycle;Max_cycle;Signal;HPM_P1;HPM_P2
2022/11/18 00:01:29;;;;;;;1.00;1.00;;;;;;;11.79;100.00;94455.75;5111681;28;20803;-53
2022/11/18 00:03:57;;;;;;;1.47;1.37;;;;;;;11.73;100.00;94432.28;5111513;28;20433;-54
2022/11/18 00:06:28;;;;;;;1.73;1.73;;;;;;;11.90;100.00;94456.34;5111845;28;20475;-54
2022/11/18 00:08:58;;;;;;;17.07;1.93;;;;;;;11.71;100.00;94453.81;5111608;28;20943;-53
2022/11/18 00:14:22;;;;;;;9.17;2.87;;;;;;;11.19;100.00;94457.72;5111297;28;20990;-53
2022/11/18 00:16:54;;;;;;;16.33;2.93;;;;;;;11.07;100.00;94465.38;5111546;28;20459;-53
2022/11/18 00:19:24;;;;;;;4.07;2.57;;;;;;;11.41;100.00;94457.81;5113391;28;20449;-53
2022/11/18 00:21:53;;;;;;;1.43;1.43;;;;;;;11.20;100.00;94443.38;5115487;28;20425;-53
2022/11/18 00:24:22;;;;;;;1.53;1.43;;;;;;;11.87;100.00;94452.41;5114930;28;20524;-53
2022/11/18 00:26:52;;;;;;;0.70;0.70;;;;;;;12.04;100.00;94449.16;5114830;28;20529;-53
2022/11/18 00:29:20;;;;;;;0.80;0.60;;;;;;;12.05;100.00;94456.00;5114922;28;20442;-53
2022/11/18 00:31:53;;;;;;;0.53;0.40;;;;;;;12.05;100.00;94450.69;5114789;28;20439;-53
2022/11/18 00:34:21;;;;;;;1.90;1.70;;;;;;;11.73;100.00;94456.16;5115007;28;20549;-53
2022/11/18 00:36:50;;;;;;;5.03;1.17;;;;;;;11.89;100.00;94462.75;5115096;28;20475;-53
2022/11/18 00:39:19;;;;;;;0.63;0.63;;;;;;;12.19;100.00;94458.66;5114164;28;20432;-53
2022/11/18 00:44:36;;;;;;;3.30;1.50;;;;;;;11.97;100.00;94454.84;5114290;28;20446;-53
2022/11/18 00:47:05;;;;;;;2.27;2.17;;;;;;;11.26;100.00;94468.72;5114648;28;20466;-53
2022/11/18 00:49:33;;;;;;;2.20;2.10;;;;;;;11.31;100.00;94436.00;5114540;28;20431;-53
2022/11/18 00:52:02;;;;;;;1.47;1.37;;;;;;;11.80;100.00;94460.00;5114552;28;20485;-53
2022/11/18 00:54:30;;;;;;;1.60;1.27;;;;;;;11.79;100.00;94442.47;5114711;28;20559;-52
2022/11/18 00:56:58;;;;;;;1.03;0.87;;;;;;;11.89;100.00;94447.59;5114737;28;20430;-52
2022/11/18 00:59:27;;;;;;;12.10;2.30;;;;;;;11.60;100.00;94451.63;5114316;28;20429;-52
2022/11/18 01:01:56;;;;;;;2.53;1.50;;;;;;;11.87;100.00;94448.97;5114428;28;20424;-52
2022/11/18 01:04:24;;;;;;;1.53;1.53;;;;;;;11.97;100.00;94438.91;5114282;28;20430;-52
2022/11/18 01:06:53;;;;;;;0.73;0.70;;;;;;;11.93;100.00;94448.56;5114265;28;20504;-52
2022/11/18 01:09:21;;;;;;;1.93;0.83;;;;;;;11.84;100.00;94458.31;5113529;28;20438;-52
2022/11/18 01:14:35;;;;;;;2.10;1.27;;;;;;;11.70;100.00;94436.31;5114359;28;20463;-52
2022/11/18 01:17:05;;;;;;;0.77;0.77;;;;;;;12.19;100.00;94462.09;5114253;27;20818;-52
2022/11/18 01:19:51;;;;;;;0.60;0.60;;;;;;;11.76;100.00;94460.91;5113956;28;20844;-52
2022/11/18 01:22:19;;;;;;;0.50;0.40;;;;;;;11.91;100.00;94463.22;5113459;27;20435;-52
2022/11/18 01:24:48;;;;;;;1.23;1.17;;;;;;;12.20;100.00;94463.66;5113952;28;20491;-52
2022/11/18 01:27:16;;;;;;;1.10;0.50;;;;;;;12.37;100.00;94453.16;5113608;28;20472;-52
2022/11/18 01:29:44;;;;;;;2.00;1.90;;;;;;;12.40;100.00;94455.22;5113920;28;20460;-52
2022/11/18 01:32:15;;;;;;;1.03;0.93;;;;;;;12.35;100.00;94449.22;5113525;28;20431;-52
2022/11/18 01:34:51;;;;;;;1.67;1.57;;;;;;;11.85;100.00;94459.09;5113560;28;20466;-52
2022/11/18 01:37:20;;;;;;;0.67;0.67;;;;;;;11.67;100.00;94449.34;5113701;28;20455;-52
2022/11/18 01:39:48;;;;;;;1.20;1.20;;;;;;;11.90;100.00;94445.72;5113870;28;20437;-53
2022/11/18 01:42:17;;;;;;;0.70;0.70;;;;;;;12.04;100.00;94481.78;5113914;28;20449;-52
2022/11/18 01:45:15;;;;;;;3.63;1.50;;;;;;;12.04;100.00;94451.81;5113793;28;20441;-52
2022/11/18 01:47:52;;;;;;;0.60;0.57;;;;;;;12.02;100.00;94451.28;5113013;28;20471;-52
2022/11/18 01:50:22;;;;;;;0.90;0.90;;;;;;;11.81;100.00;94456.28;5112552;28;20881;-52
2022/11/18 01:52:52;;;;;;;0.80;0.80;;;;;;;11.41;100.00;94460.47;5113378;28;20431;-52
2022/11/18 01:55:25;;;;;;;0.40;0.40;;;;;;;11.85;100.00;94464.41;5113259;27;20966;-52
2022/11/18 01:58:02;;;;;;;1.13;1.13;;;;;;;11.85;100.00;94451.94;5113303;28;20421;-52
2022/11/18 02:00:31;;;;;;;0.70;0.63;;;;;;;12.07;100.00;94449.31;5113201;28;20827;-52
2022/11/18 02:03:01;;;;;;;2.37;2.17;;;;;;;12.00;100.00;94458.78;5113422;28;20743;-52
2022/11/18 02:05:32;;;;;;;0.50;0.40;;;;;;;11.72;100.00;94450.06;5113147;27;21023;-52
2022/11/18 02:08:01;;;;;;;0.90;0.90;;;;;;;12.02;100.00;94433.50;5113167;28;20503;-52
2022/11/18 02:10:29;;;;;;;1.63;1.53;;;;;;;12.00;100.00;94453.47;5112984;28;20430;-52
2022/11/18 02:12:58;;;;;;;0.83;0.83;;;;;;;11.98;100.00;94448.47;5113316;28;20834;-52
2022/11/18 02:15:42;;;;;;;0.47;0.40;;;;;;;12.18;100.00;94455.19;5113111;28;20470;-52
2022/11/18 02:18:24;;;;;;;0.97;0.80;;;;;;;11.90;100.00;94456.34;5112697;28;20560;-52
2022/11/18 02:20:57;;;;;;;1.63;1.43;;;;;;;11.56;100.00;94453.31;5113080;28;20429;-52
2022/11/18 02:24:00;;;;;;;1.70;1.60;;;;;;;11.68;100.00;94448.28;5112962;28;20818;-52
2022/11/18 02:27:05;;;;;;;2.40;1.73;;;;;;;11.86;100.00;94440.25;5112661;28;21080;-52
2022/11/18 02:29:42;;;;;;;1.20;0.80;;;;;;;11.84;100.00;94453.00;5112666;28;20453;-52
2022/11/18 02:32:13;;;;;;;1.83;0.87;;;;;;;11.97;100.00;94457.50;5112177;28;20965;-52
2022/11/18 02:34:49;;;;;;;2.00;1.27;;;;;;;11.91;100.00;94453.41;5112628;28;20902;-52
2022/11/18 02:37:23;;;;;;;3.47;2.50;;;;;;;11.65;100.00;94457.63;5112544;28;20769;-52
2022/11/18 02:39:58;;;;;;;1.30;1.30;;;;;;;11.23;100.00;94440.13;5112517;28;20528;-52
2022/11/18 02:42:30;;;;;;;7.80;1.40;;;;;;;11.29;100.00;94464.69;5112396;28;20421;-52
2022/11/18 02:45:05;;;;;;;3.47;2.73;;;;;;;11.29;100.00;94475.31;5112417;27;20422;-52
2022/11/18 02:47:36;;;;;;;29.47;1.97;;;;;;;11.58;100.00;94465.19;5112525;28;20452;-52
2022/11/18 02:50:09;;;;;;;0.77;0.77;;;;;;;11.80;100.00;94461.88;5112568;28;20936;-52
2022/11/18 02:52:40;;;;;;;1.17;1.13;;;;;;;11.95;100.00;94457.03;5112620;28;20418;-52
2022/11/18 02:55:11;;;;;;;0.53;0.53;;;;;;;11.60;100.00;94446.31;5112260;28;20422;-52
2022/11/18 02:57:42;;;;;;;0.83;0.83;;;;;;;11.31;100.00;94452.72;5112194;28;20498;-52
2022/11/18 03:00:13;;;;;;;1.27;1.17;;;;;;;10.95;100.00;94459.75;5112458;28;20430;-52
2022/11/18 03:02:43;;;;;;;1.20;0.63;;;;;;;11.45;100.00;94460.69;5112163;28;20770;-52
2022/11/18 03:05:20;;;;;;;0.70;0.50;;;;;;;11.08;100.00;94464.25;5112147;28;20428;-52
2022/11/18 03:07:54;;;;;;;0.90;0.50;;;;;;;11.36;100.00;94465.88;5112169;28;20422;-52
2022/11/18 03:10:26;;;;;;;0.53;0.40;;;;;;;11.48;100.00;94494.59;5111691;28;20423;-52
2022/11/18 03:13:06;;;;;;;0.60;0.60;;;;;;;11.26;100.00;94466.06;5112219;28;20798;-52
2022/11/18 03:15:45;;;;;;;1.47;0.60;;;;;;;11.36;100.00;94479.13;5111722;28;20468;-52
2022/11/18 03:18:20;;;;;;;0.60;0.43;;;;;;;11.32;100.00;94464.91;5111737;28;20463;-52
2022/11/18 03:20:52;;;;;;;0.67;0.67;;;;;;;11.27;100.00;94464.19;5111763;28;20432;-52
2022/11/18 03:23:28;;;;;;;0.40;0.30;;;;;;;11.12;100.00;94465.28;5111676;28;20512;-52
2022/11/18 03:26:01;;;;;;;0.80;0.77;;;;;;;10.84;100.00;94456.47;5112028;28;20433;-52
2022/11/18 03:28:36;;;;;;;0.40;0.33;;;;;;;11.32;100.00;94475.50;5111923;28;20429;-52
2022/11/18 03:31:14;;;;;;;0.40;0.30;;;;;;;11.57;100.00;94476.88;5111666;28;20950;-52
2022/11/18 03:33:47;;;;;;;5.63;1.13;;;;;;;11.12;100.00;94462.63;5111625;28;20432;-52
2022/11/18 03:36:19;;;;;;;0.60;0.60;;;;;;;11.23;100.00;94468.53;5111601;28;20552;-53
2022/11/18 03:38:51;;;;;;;1.47;1.37;;;;;;;11.38;100.00;94463.69;5111581;28;20521;-52
2022/11/18 03:41:24;;;;;;;2.13;0.60;;;;;;;11.39;100.00;94459.97;5111630;28;20425;-52
2022/11/18 03:43:57;;;;;;;1.10;1.10;;;;;;;11.24;100.00;94468.22;5111623;28;20435;-52
2022/11/18 03:46:31;;;;;;;1.43;1.00;;;;;;;11.21;100.00;94471.47;5111594;28;20419;-52
2022/11/18 03:49:00;;;;;;;1.60;1.50;;;;;;;11.61;100.00;94464.63;5111444;28;20926;-52
2022/11/18 03:51:35;;;;;;;0.40;0.30;;;;;;;11.89;100.00;94463.50;5111570;28;20504;-52
2022/11/18 03:54:10;;;;;;;1.53;1.07;;;;;;;11.39;100.00;94475.91;5113118;28;20806;-52
2022/11/18 03:56:44;;;;;;;0.60;0.60;;;;;;;11.10;100.00;94456.84;5115292;28;20534;-52
2022/11/18 03:59:16;;;;;;;0.97;0.97;;;;;;;11.50;100.00;94452.63;5115626;28;20432;-52
2022/11/18 04:01:52;;;;;;;30.50;0.97;;;;;;;11.60;100.00;94489.56;5115300;28;20519;-52
2022/11/18 04:04:22;;;;;;;0.40;0.40;;;;;;;11.42;100.00;94496.53;5115282;28;20429;-52
2022/11/18 04:06:55;;;;;;;0.60;0.60;;;;;;;11.53;100.00;94491.03;5115408;27;20428;-52
2022/11/18 04:09:27;;;;;;;0.40;0.30;;;;;;;10.98;100.00;94496.25;5115409;28;20441;-52
2022/11/18 04:12:04;;;;;;;0.50;0.50;;;;;;;10.95;100.00;94501.38;5115102;28;20439;-52
2022/11/18 04:14:35;;;;;;;0.40;0.30;;;;;;;10.73;100.00;94499.31;5114796;28;21028;-53
2022/11/18 04:17:09;;;;;;;0.80;0.60;;;;;;;10.95;100.00;94499.53;5114902;28;20487;-53
2022/11/18 04:19:37;;;;;;;0.40;0.30;;;;;;;11.26;100.00;94489.13;5115017;28;20428;-53
2022/11/18 04:22:09;;;;;;;0.57;0.50;;;;;;;11.24;100.00;94486.78;5114891;28;20937;-53
2022/11/18 04:24:38;;;;;;;0.50;0.40;;;;;;;11.04;100.00;94505.72;5114875;28;20524;-53
2022/11/18 04:27:06;;;;;;;0.40;0.33;;;;;;;11.17;100.00;94504.97;5114693;28;20469;-53
2022/11/18 04:29:35;;;;;;;1.33;1.33;;;;;;;11.46;100.00;94494.06;5114723;28;20456;-53
2022/11/18 04:32:04;;;;;;;0.50;0.50;;;;;;;11.04;100.00;94497.75;5115173;28;20425;-53
2022/11/18 04:34:34;;;;;;;0.77;0.77;;;;;;;11.33;100.00;94492.97;5114701;28;20949;-53
2022/11/18 04:37:02;;;;;;;0.40;0.30;;;;;;;11.59;100.00;94487.19;5114753;28;20475;-53
2022/11/18 04:39:30;;;;;;;0.67;0.33;;;;;;;11.12;100.00;94417.53;5114899;27;20436;-53
2022/11/18 04:41:59;;;;;;;0.40;0.27;;;;;;;11.01;100.00;94497.53;5114176;28;20991;-53
2022/11/18 04:44:28;;;;;;;0.53;0.53;;;;;;;11.12;100.00;94491.78;5113776;28;20524;-53
2022/11/18 04:46:58;;;;;;;0.30;0.30;;;;;;;11.20;100.00;94492.97;5114204;28;20426;-53
2022/11/18 04:49:27;;;;;;;0.30;0.20;;;;;;;11.41;100.00;94487.00;5114270;28;20432;-53
2022/11/18 04:51:57;;;;;;;1.03;0.40;;;;;;;11.54;100.00;94484.63;5114671;28;20427;-53
2022/11/18 04:54:27;;;;;;;0.40;0.30;;;;;;;11.26;100.00;94486.50;5114319;28;20432;-53
2022/11/18 04:56:56;;;;;;;0.47;0.47;;;;;;;11.41;100.00;94480.91;5114212;28;20475;-53
2022/11/18 04:59:26;;;;;;;0.77;0.77;;;;;;;11.56;100.00;94477.97;5114245;28;20436;-53
2022/11/18 05:01:55;;;;;;;0.70;0.57;;;;;;;11.63;100.00;94443.06;5114461;27;20435;-53
2022/11/18 05:04:25;;;;;;;0.40;0.30;;;;;;;11.68;100.00;94482.78;5114224;28;20418;-50
2022/11/18 05:06:53;;;;;;;1.57;0.30;;;;;;;11.37;100.00;94478.06;5113473;28;20439;-53
2022/11/18 05:09:23;;;;;;;0.60;0.60;;;;;;;11.38;100.00;94482.28;5114383;28;20819;-53
2022/11/18 05:14:44;;;;;;;0.47;0.40;;;;;;;11.62;100.00;94483.97;5114457;28;20522;-52
2022/11/18 05:17:18;;;;;;;1.27;1.17;;;;;;;11.57;100.00;94492.81;5114045;28;20567;-53
2022/11/18 05:19:46;;;;;;;0.83;0.83;;;;;;;11.24;100.00;94484.13;5113999;28;20960;-52
2022/11/18 05:22:15;;;;;;;0.60;0.60;;;;;;;11.40;100.00;94480.13;5113926;28;20413;-52
2022/11/18 05:24:44;;;;;;;0.50;0.50;;;;;;;11.56;100.00;94472.66;5114237;28;20517;-52
2022/11/18 05:27:13;;;;;;;0.50;0.40;;;;;;;11.75;100.00;94472.59;5113277;28;20580;-53
2022/11/18 05:29:42;;;;;;;0.47;0.30;;;;;;;11.87;100.00;94475.50;5113744;28;20449;-52
2022/11/18 05:32:10;;;;;;;3.90;0.60;;;;;;;11.91;100.00;94484.47;5113678;27;20422;-52
2022/11/18 05:34:39;;;;;;;0.97;0.97;;;;;;;11.72;100.00;94484.59;5113704;28;20920;-52
2022/11/18 05:37:08;;;;;;;0.57;0.40;;;;;;;11.56;100.00;94458.63;5113860;28;20465;-52
2022/11/18 05:39:36;;;;;;;0.77;0.77;;;;;;;11.64;100.00;94477.28;5113621;28;20436;-52
2022/11/18 05:44:51;;;;;;;0.40;0.40;;;;;;;11.70;100.00;94486.75;5113602;28;20791;-53
2022/11/18 05:47:26;;;;;;;0.70;0.70;;;;;;;11.60;100.00;94494.09;5113326;28;20434;-53
2022/11/18 05:49:54;;;;;;;0.50;0.50;;;;;;;11.34;100.00;94486.59;5113501;28;20514;-53
2022/11/18 05:52:22;;;;;;;0.53;0.50;;;;;;;11.55;100.00;94505.59;5113359;28;20421;-53
2022/11/18 05:54:51;;;;;;;0.60;0.60;;;;;;;11.22;100.00;94512.84;5113038;28;20421;-53
2022/11/18 05:57:21;;;;;;;0.90;0.80;;;;;;;11.56;100.00;94511.69;5113127;27;20562;-48
2022/11/18 05:59:49;;;;;;;0.70;0.70;;;;;;;12.31;100.00;94499.53;5113554;28;20930;-48
2022/11/18 06:02:22;;;;;;;0.70;0.70;;;;;;;12.45;100.00;94502.94;5113646;28;20428;-46
2022/11/18 06:04:54;;;;;;;3.03;1.27;;;;;;;12.61;100.00;94512.16;5113112;28;20946;-46
2022/11/18 06:07:25;;;;;;;0.40;0.30;;;;;;;12.64;100.00;94494.81;5113011;28;20507;-46
2022/11/18 06:09:59;;;;;;;10.60;0.70;;;;;;;12.46;100.00;94517.81;5113474;28;20801;-46
2022/11/18 06:12:37;;;;;;;1.33;0.87;;;;;;;12.46;100.00;94507.19;5113108;28;20986;-46
2022/11/18 06:15:12;;;;;;;0.60;0.40;;;;;;;12.88;100.00;94510.44;5113273;28;20861;-46
2022/11/18 06:17:45;;;;;;;0.47;0.43;;;;;;;12.79;100.00;94501.63;5112591;28;20506;-46
2022/11/18 06:20:14;;;;;;;7.43;1.27;;;;;;;13.13;100.00;94512.53;5113339;28;20443;-46
2022/11/18 06:22:42;;;;;;;0.60;0.60;;;;;;;13.17;100.00;94518.81;5112950;28;20940;-46
2022/11/18 06:25:14;;;;;;;0.40;0.37;;;;;;;12.96;100.00;94525.69;5112477;28;20473;-46
2022/11/18 06:27:45;;;;;;;0.47;0.47;;;;;;;13.04;100.00;94504.47;5112404;28;20478;-46
2022/11/18 06:30:14;;;;;;;1.90;0.87;;;;;;;13.07;100.00;94521.72;5112825;27;20507;-46
2022/11/18 06:32:43;;;;;;;0.60;0.40;;;;;;;13.09;100.00;94512.34;5112757;28;20427;-54
2022/11/18 06:35:11;;;;;;;2.50;0.60;;;;;;;12.72;100.00;94518.03;5112626;28;20422;-52
2022/11/18 06:37:40;;;;;;;0.40;0.40;;;;;;;12.10;100.00;94523.09;5112678;28;20478;-52
2022/11/18 06:40:09;;;;;;;0.40;0.40;;;;;;;12.05;100.00;94530.38;5112918;28;20817;-52
2022/11/18 06:45:24;;;;;;;0.40;0.40;;;;;;;11.75;100.00;94520.38;5112500;28;21065;-53
2022/11/18 06:47:55;;;;;;;0.83;0.83;;;;;;;11.78;100.00;94517.91;5112513;28;20806;-53
2022/11/18 06:50:24;;;;;;;1.23;1.23;;;;;;;12.01;100.00;94513.47;5112439;28;20435;-52
2022/11/18 06:52:52;;;;;;;1.23;0.87;;;;;;;11.99;100.00;94510.34;5112349;28;20430;-52
2022/11/18 06:55:20;;;;;;;0.57;0.57;;;;;;;12.18;100.00;94516.28;5112651;28;20426;-52
2022/11/18 06:57:49;;;;;;;0.60;0.30;;;;;;;11.96;100.00;94498.44;5112431;28;20496;-52
2022/11/18 07:00:18;;;;;;;0.83;0.83;;;;;;;12.06;100.00;94508.06;5112410;28;20477;-52
2022/11/18 07:02:48;;;;;;;0.57;0.50;;;;;;;12.20;100.00;94506.16;5112290;28;20477;-52
2022/11/18 07:05:17;;;;;;;2.17;1.60;;;;;;;11.74;100.00;94508.97;5111928;28;20469;-53
2022/11/18 07:07:45;;;;;;;1.23;0.50;;;;;;;12.10;100.00;94514.34;5111715;28;20904;-52
2022/11/18 07:10:13;;;;;;;1.30;1.20;;;;;;;12.08;100.00;94498.72;5112106;28;20437;-52
2022/11/18 07:12:42;;;;;;;0.70;0.70;;;;;;;12.03;100.00;94511.31;5112458;28;20432;-53
2022/11/18 07:15:10;;;;;;;0.47;0.47;;;;;;;12.30;100.00;94511.25;5111293;28;20897;-52
2022/11/18 07:17:39;;;;;;;0.50;0.50;;;;;;;12.29;100.00;94515.00;5112054;28;21029;-51
2022/11/18 07:20:09;;;;;;;4.43;0.97;;;;;;;11.96;100.00;94525.00;5111535;28;20907;-50
2022/11/18 07:22:38;;;;;;;0.83;0.83;;;;;;;11.73;100.00;94488.03;5112038;28;20445;-50
2022/11/18 07:25:06;;;;;;;1.07;0.97;;;;;;;12.15;100.00;94505.47;5112048;28;20518;-50
2022/11/18 07:27:35;;;;;;;4.03;1.40;;;;;;;11.67;100.00;94518.38;5111835;28;21092;-50
2022/11/18 07:30:03;;;;;;;1.13;1.03;;;;;;;11.44;100.00;94461.75;5114574;28;20422;-51
2022/11/18 07:32:33;;;;;;;0.73;0.40;;;;;;;11.57;100.00;94492.03;5116546;27;20926;-53
2022/11/18 07:35:01;;;;;;;4.23;1.43;;;;;;;11.60;100.00;94504.69;5116155;28;20434;-52
2022/11/18 07:37:31;;;;;;;0.70;0.60;;;;;;;11.42;100.00;94507.16;5115626;28;20441;-52
2022/11/18 07:39:59;;;;;;;1.33;1.23;;;;;;;11.38;100.00;94500.84;5116033;28;20429;-52
2022/11/18 07:42:27;;;;;;;0.43;0.40;;;;;;;11.84;100.00;94508.00;5116058;27;20434;-52
2022/11/18 07:44:56;;;;;;;1.07;1.07;;;;;;;12.22;100.00;94493.34;5115941;28;20435;-51
2022/11/18 07:47:24;;;;;;;0.97;0.30;;;;;;;12.49;100.00;94490.63;5115933;28;20511;-52
2022/11/18 07:49:52;;;;;;;0.50;0.40;;;;;;;12.14;100.00;94472.84;5115130;28;20496;-52
2022/11/18 07:52:21;;;;;;;0.40;0.30;;;;;;;12.39;100.00;94492.72;5115307;28;20435;-52
2022/11/18 07:54:50;;;;;;;3.80;0.97;;;;;;;12.38;100.00;94483.97;5115864;28;20442;-53
2022/11/18 07:57:18;;;;;;;3.40;0.43;;;;;;;12.82;100.00;94487.75;5115744;28;20938;-53
2022/11/18 07:59:47;;;;;;;0.50;0.50;;;;;;;12.67;100.00;94483.59;5115891;28;20485;-53
2022/11/18 08:02:15;;;;;;;0.90;0.60;;;;;;;12.75;100.00;94490.81;5115211;28;20435;-53
2022/11/18 08:04:43;;;;;;;0.40;0.30;;;;;;;12.67;100.00;94489.66;5115649;28;20514;-53
2022/11/18 08:07:12;;;;;;;0.60;0.60;;;;;;;12.57;100.00;94494.44;5115595;28;20944;-53
2022/11/18 08:09:40;;;;;;;0.70;0.70;;;;;;;12.62;100.00;94504.97;5115390;27;20493;-53
2022/11/18 08:12:10;;;;;;;0.30;0.20;;;;;;;12.50;100.00;94507.34;5115411;28;20431;-53
2022/11/18 08:14:38;;;;;;;1.13;0.40;;;;;;;12.37;100.00;94503.63;5115778;28;20415;-54
2022/11/18 08:17:06;;;;;;;1.10;1.07;;;;;;;12.42;100.00;94513.41;5115358;28;20424;-53
2022/11/18 08:19:36;;;;;;;0.70;0.70;;;;;;;12.17;100.00;94474.09;5115273;28;20559;-53
2022/11/18 08:22:04;;;;;;;1.77;1.27;;;;;;;12.68;100.00;94496.56;5115445;28;20463;-54
2022/11/18 08:24:32;;;;;;;0.47;0.47;;;;;;;12.84;100.00;94482.91;5115572;28;20429;-53
2022/11/18 08:27:01;;;;;;;0.50;0.30;;;;;;;13.09;100.00;94472.44;5114877;28;20933;-52
2022/11/18 08:29:30;;;;;;;0.67;0.67;;;;;;;12.85;100.00;94492.47;5115040;28;21059;-53
2022/11/18 08:31:58;;;;;;;0.40;0.30;;;;;;;13.19;100.00;94477.50;5115083;28;20446;-53
2022/11/18 08:34:27;;;;;;;1.20;0.40;;;;;;;12.87;100.00;94477.78;5115174;28;20792;-53
2022/11/18 08:36:55;;;;;;;0.83;0.83;;;;;;;13.04;100.00;94472.56;5114916;28;20424;-54
2022/11/18 08:39:23;;;;;;;1.13;0.70;;;;;;;13.35;100.00;94470.72;5114765;28;20479;-53
2022/11/18 08:41:52;;;;;;;3.37;1.00;;;;;;;12.94;100.00;94477.34;5114978;28;20504;-54
2022/11/18 08:44:20;;;;;;;1.60;1.50;;;;;;;13.25;100.00;94486.94;5114818;28;20446;-53
2022/11/18 08:46:50;;;;;;;1.43;0.57;;;;;;;13.80;100.00;94478.53;5114858;28;20526;-54
2022/11/18 08:49:18;;;;;;;0.50;0.50;;;;;;;13.60;100.00;94473.78;5113741;28;20428;-53
2022/11/18 08:51:47;;;;;;;0.57;0.57;;;;;;;13.81;100.00;94475.56;5114664;28;20932;-54
2022/11/18 08:54:15;;;;;;;1.43;1.17;;;;;;;14.14;100.00;94477.84;5113890;28;20439;-53
2022/11/18 08:56:43;;;;;;;0.83;0.83;;;;;;;13.76;100.00;94422.44;5114612;28;20425;-54
2022/11/18 08:59:12;;;;;;;0.70;0.70;;;;;;;14.20;100.00;94476.59;5114499;27;20971;-53
2022/11/18 09:01:42;;;;;;;0.70;0.70;;;;;;;13.83;100.00;94436.09;5114051;28;20442;-54
2022/11/18 09:04:12;;;;;;;0.83;0.83;;;;;;;13.99;100.00;94449.75;5114373;28;21172;-54
2022/11/18 09:06:40;;;;;;;2.57;2.47;;;;;;;13.68;100.00;94465.81;5114344;28;20431;-54
2022/11/18 09:09:09;;;;;;;1.47;1.37;;;;;;;13.92;100.00;94460.88;5114427;28;20481;-53
2022/11/18 09:11:39;;;;;;;0.70;0.70;;;;;;;14.33;100.00;94470.34;5114164;28;20940;-53
2022/11/18 09:14:07;;;;;;;3.27;0.63;;;;;;;14.28;100.00;94460.63;5114277;28;20416;-53
2022/11/18 09:16:55;;;;;;;0.50;0.40;;;;;;;14.62;100.00;94455.28;5113259;28;20443;-53
2022/11/18 09:19:25;;;;;;;2.00;1.90;;;;;;;14.22;100.00;94458.41;5114096;28;20477;-54
2022/11/18 09:22:13;;;;;;;1.13;1.13;;;;;;;13.40;100.00;94435.19;5113975;28;20443;-54
2022/11/18 09:24:42;;;;;;;0.80;0.80;;;;;;;13.08;100.00;94464.78;5113997;28;20501;-54
2022/11/18 09:27:10;;;;;;;0.70;0.70;;;;;;;13.31;100.00;94456.44;5113807;28;21034;-54
2022/11/18 09:29:44;;;;;;;0.50;0.50;;;;;;;13.91;100.00;94456.63;5114153;28;20871;-54
2022/11/18 09:32:13;;;;;;;0.97;0.77;;;;;;;15.00;100.00;94439.41;5114102;28;20462;-54
2022/11/18 09:34:42;;;;;;;3.30;1.00;;;;;;;15.23;100.00;94437.28;5112981;28;20430;-54
2022/11/18 09:37:11;;;;;;;0.83;0.77;;;;;;;14.63;100.00;94435.53;5113086;28;20489;-54
2022/11/18 09:39:39;;;;;;;0.50;0.50;;;;;;;15.06;100.00;94440.81;5113389;28;20519;-53
2022/11/18 09:42:21;;;;;;;3.87;1.43;;;;;;;15.19;100.00;94426.47;5114002;28;20416;-54
2022/11/18 09:45:03;;;;;;;2.50;2.40;;;;;;;14.59;100.00;94412.50;5113678;28;20535;-54
2022/11/18 09:47:39;;;;;;;0.60;0.50;;;;;;;14.48;100.00;94332.03;5113606;28;20427;-54
2022/11/18 09:50:12;;;;;;;0.87;0.70;;;;;;;15.28;100.00;94410.41;5113641;27;20445;-54
2022/11/18 09:53:09;;;;;;;1.57;1.47;;;;;;;14.68;100.00;94405.25;5112729;28;21040;-54
2022/11/18 09:55:39;;;;;;;2.30;0.90;;;;;;;14.54;100.00;94404.66;5113471;28;20422;-54
2022/11/18 09:58:15;;;;;;;4.20;1.27;;;;;;;14.55;100.00;94406.22;5113710;28;20432;-54
2022/11/18 10:00:44;;;;;;;1.23;1.20;;;;;;;13.81;100.00;94402.88;5113278;28;20926;-54
2022/11/18 10:03:26;;;;;;;0.70;0.47;;;;;;;14.33;100.00;94403.72;5112797;28;20434;-54
2022/11/18 10:06:01;;;;;;;1.13;1.13;;;;;;;13.98;100.00;94411.69;5113299;27;20448;-55
2022/11/18 10:08:35;;;;;;;1.20;1.10;;;;;;;13.92;100.00;94412.91;5113256;28;20430;-54
2022/11/18 10:11:13;;;;;;;1.63;1.53;;;;;;;13.63;100.00;94404.72;5113267;28;20428;-54
2022/11/18 10:13:54;;;;;;;1.70;1.60;;;;;;;13.19;100.00;94388.94;5113273;28;20823;-54
2022/11/18 10:16:36;;;;;;;2.20;2.10;;;;;;;13.50;100.00;94392.31;5113071;28;20445;-54
2022/11/18 10:19:19;;;;;;;0.80;0.80;;;;;;;14.17;100.00;94391.94;5112865;28;20515;-54
2022/11/18 10:21:59;;;;;;;1.10;1.10;;;;;;;13.94;100.00;94392.06;5113039;28;20520;-54
2022/11/18 10:24:32;;;;;;;0.50;0.43;;;;;;;13.94;100.00;94386.75;5113282;28;20447;-54
2022/11/18 10:27:01;;;;;;;0.87;0.87;;;;;;;14.38;100.00;94376.91;5112712;28;21027;-54
2022/11/18 10:29:29;;;;;;;1.57;1.47;;;;;;;15.39;100.00;94384.16;5113047;28;20794;-54
2022/11/18 10:32:02;;;;;;;0.57;0.57;;;;;;;15.44;100.00;94379.41;5112833;28;20542;-55
2022/11/18 10:34:33;;;;;;;1.60;1.37;;;;;;;15.55;98.83;94363.84;5113084;28;20446;-55
2022/11/18 10:37:07;;;;;;;1.43;0.60;;;;;;;15.72;97.85;94353.06;5112723;28;20500;-56
2022/11/18 10:39:50;;;;;;;0.47;0.33;;;;;;;15.68;98.82;94382.31;5112642;28;21077;-57
2022/11/18 10:42:25;;;;;;;2.70;2.50;;;;;;;15.19;100.00;94365.09;5112562;28;20525;-55
2022/11/18 10:44:53;;;;;;;0.87;0.87;;;;;;;15.24;100.00;94359.56;5112155;27;20524;-55
2022/11/18 10:47:27;;;;;;;5.90;1.33;;;;;;;15.28;100.00;94352.47;5112327;28;20437;-54
2022/11/18 10:49:58;;;;;;;5.40;0.70;;;;;;;15.03;100.00;94356.03;5112443;28;20820;-57
2022/11/18 10:52:29;;;;;;;1.17;1.17;;;;;;;15.31;100.00;94352.94;5112545;28;20429;-55
2022/11/18 10:55:20;;;;;;;2.53;0.73;;;;;;;15.17;100.00;94345.94;5112412;28;20458;-55
2022/11/18 10:57:51;;;;;;;0.43;0.30;;;;;;;15.13;100.00;94358.34;5112389;28;20430;-55
2022/11/18 11:00:41;;;;;;;0.73;0.73;;;;;;;15.20;100.00;94341.84;5112307;28;20598;-56
2022/11/18 11:03:32;;;;;;;0.53;0.50;;;;;;;14.99;100.00;94339.13;5112279;28;20427;-56
2022/11/18 11:06:31;;;;;;;3.53;1.13;;;;;;;14.88;100.00;94337.88;5112352;28;20430;-54
2022/11/18 11:09:04;;;;;;;2.50;2.30;;;;;;;15.10;100.00;94336.88;5112570;28;20811;-54
2022/11/18 11:11:34;;;;;;;4.93;2.63;;;;;;;14.80;100.00;94329.94;5112185;28;20422;-52
2022/11/18 11:14:13;;;;;;;1.67;0.73;;;;;;;15.17;100.00;94323.81;5112144;28;20521;-52
2022/11/18 11:16:48;;;;;;;2.87;1.43;;;;;;;15.18;100.00;94315.47;5111990;28;20882;-52
2022/11/18 11:19:22;;;;;;;0.70;0.70;;;;;;;15.36;100.00;94316.16;5112254;28;20910;-52
2022/11/18 11:21:51;;;;;;;2.17;1.40;;;;;;;14.93;100.00;94312.91;5112011;28;20433;-52
2022/11/18 11:24:25;;;;;;;1.37;0.90;;;;;;;15.32;100.00;94287.78;5111956;28;20424;-52
2022/11/18 11:27:06;;;;;;;1.43;1.33;;;;;;;15.50;100.00;94299.94;5111249;28;20471;-51
2022/11/18 11:30:15;;;;;;;1.87;1.77;;;;;;;16.01;100.00;94304.91;5111967;28;20445;-52
2022/11/18 11:33:10;;;;;;;9.30;0.90;;;;;;;16.44;98.75;94291.91;5111444;28;20430;-52
2022/11/18 11:35:47;;;;;;;0.87;0.87;;;;;;;15.50;99.61;94207.25;5111828;28;20451;-52
2022/11/18 11:38:24;;;;;;;2.67;2.57;;;;;;;15.98;99.66;94280.72;5111706;28;20521;-52
2022/11/18 11:41:03;;;;;;;1.63;1.50;;;;;;;16.39;100.00;94302.06;5111752;28;20465;-52
2022/11/18 11:43:42;;;;;;;1.67;1.57;;;;;;;17.38;92.65;94290.03;5111832;28;20434;-52
2022/11/18 11:46:28;;;;;;;2.83;2.63;;;;;;;16.21;90.44;94212.44;5111711;28;20435;-52
2022/11/18 11:49:02;;;;;;;1.40;0.53;;;;;;;16.82;93.51;94264.16;5111897;28;20430;-53
2022/11/18 11:51:40;;;;;;;2.63;2.53;;;;;;;16.12;91.34;94263.28;5111580;28;20430;-52
2022/11/18 11:54:23;;;;;;;1.93;1.83;;;;;;;16.70;93.34;94274.81;5111967;28;20424;-53
2022/11/18 11:56:57;;;;;;;1.83;1.20;;;;;;;16.61;91.48;94272.25;5111696;28;20414;-53
2022/11/18 11:59:32;;;;;;;1.40;1.33;;;;;;;16.71;90.69;94265.69;5111681;28;20522;-53
2022/11/18 12:02:35;;;;;;;1.50;0.87;;;;;;;17.14;88.56;94268.63;5111239;28;20478;-52
2022/11/18 12:05:17;;;;;;;3.33;2.07;;;;;;;16.16;89.98;94156.50;5109124;28;20894;-53
2022/11/18 12:07:49;;;;;;;2.20;1.73;;;;;;;16.85;92.97;94255.47;5112029;28;20431;-53